createdAt,value
2022-12-11T00:00:24.302Z,44.80
2022-12-11T00:03:15.833Z,45.53
2022-12-11T00:05:44.688Z,46.43
2022-12-11T00:08:12.901Z,45.23
2022-12-11T00:10:40.811Z,43.33
2022-12-11T00:13:08.441Z,36.10
2022-12-11T00:15:38.482Z,40.83
2022-12-11T00:18:05.998Z,53.57
2022-12-11T00:20:33.741Z,48.47
2022-12-11T00:23:01.506Z,53.07
2022-12-11T00:25:29.280Z,57.27
2022-12-11T00:27:56.844Z,41.60
2022-12-11T00:30:24.791Z,43.73
2022-12-11T00:32:52.778Z,44.60
2022-12-11T00:35:39.272Z,44.77
2022-12-11T00:38:06.833Z,38.77
2022-12-11T00:40:35.760Z,40.83
2022-12-11T00:43:03.793Z,39.33
2022-12-11T00:45:31.756Z,39.57
2022-12-11T00:47:59.376Z,44.30
2022-12-11T00:50:27.578Z,44.47
2022-12-11T00:52:55.155Z,43.73
2022-12-11T00:55:41.780Z,40.97
2022-12-11T00:58:09.887Z,42.23
2022-12-11T01:00:38.299Z,43.30
2022-12-11T01:03:06.220Z,42.47
2022-12-11T01:05:34.435Z,39.63
2022-12-11T01:08:03.101Z,35.80
2022-12-11T01:10:31.028Z,36.50
2022-12-11T01:13:00.146Z,35.90
2022-12-11T01:15:29.863Z,41.27
2022-12-11T01:17:57.990Z,30.37
2022-12-11T01:20:26.592Z,36.00
2022-12-11T01:22:55.803Z,37.20
2022-12-11T01:25:23.765Z,39.87
2022-12-11T01:27:52.472Z,33.60
2022-12-11T01:30:20.818Z,38.20
2022-12-11T01:32:51.516Z,32.80
2022-12-11T01:35:19.718Z,33.00
2022-12-11T01:37:47.760Z,42.60
2022-12-11T01:40:16.694Z,32.00
2022-12-11T01:42:45.478Z,39.00
2022-12-11T01:45:24.708Z,43.87
2022-12-11T01:48:11.124Z,47.87
2022-12-11T01:50:41.764Z,43.47
2022-12-11T01:53:11.137Z,48.83
2022-12-11T01:55:39.358Z,41.77
2022-12-11T01:58:07.345Z,48.00
2022-12-11T02:00:35.603Z,41.63
2022-12-11T02:03:03.246Z,45.37
2022-12-11T02:05:31.129Z,48.20
2022-12-11T02:08:00.442Z,40.30
2022-12-11T02:10:44.417Z,37.83
2022-12-11T02:13:19.041Z,37.93
2022-12-11T02:15:55.927Z,35.30
2022-12-11T02:18:30.754Z,35.40
2022-12-11T02:21:03.152Z,37.07
2022-12-11T02:23:51.505Z,35.50
2022-12-11T02:26:28.633Z,34.67
2022-12-11T02:29:00.446Z,36.40
2022-12-11T02:31:30.586Z,34.97
2022-12-11T02:34:04.523Z,39.70
2022-12-11T02:36:35.609Z,37.97
2022-12-11T02:39:04.386Z,33.67
2022-12-11T02:41:34.313Z,40.73
2022-12-11T02:44:03.380Z,39.00
2022-12-11T02:46:32.594Z,39.17
2022-12-11T02:49:00.357Z,47.37
2022-12-11T02:51:30.571Z,44.37
2022-12-11T02:53:59.607Z,37.30
2022-12-11T02:56:30.068Z,35.83
2022-12-11T02:59:00.749Z,38.70
2022-12-11T03:01:28.787Z,42.67
2022-12-11T03:03:56.462Z,46.33
2022-12-11T03:06:27.530Z,34.13
2022-12-11T03:08:55.070Z,42.87
2022-12-11T03:11:22.958Z,37.50
2022-12-11T03:13:50.591Z,42.50
2022-12-11T03:16:30.471Z,43.33
2022-12-11T03:19:03.977Z,42.00
2022-12-11T03:21:35.465Z,41.00
2022-12-11T03:24:08.686Z,41.70
2022-12-11T03:26:39.196Z,44.30
2022-12-11T03:29:21.421Z,37.60
2022-12-11T03:31:59.297Z,42.57
2022-12-11T03:34:30.650Z,43.67
2022-12-11T03:37:00.553Z,43.65
2022-12-11T03:39:33.664Z,42.83
2022-12-11T03:42:06.690Z,34.27
2022-12-11T03:44:36.162Z,32.73
2022-12-11T03:47:05.435Z,35.90
2022-12-11T03:49:36.215Z,36.37
2022-12-11T03:52:05.281Z,42.95
2022-12-11T03:54:33.475Z,40.53
2022-12-11T03:57:02.937Z,39.93
2022-12-11T03:59:30.518Z,37.80
2022-12-11T04:01:58.506Z,46.80
2022-12-11T04:04:26.198Z,32.23
2022-12-11T04:06:54.102Z,36.03
2022-12-11T04:09:21.606Z,36.03
2022-12-11T04:11:49.512Z,43.10
2022-12-11T04:14:35.748Z,43.67
2022-12-11T04:17:03.602Z,46.83
2022-12-11T04:19:50.009Z,43.37
2022-12-11T04:22:37.582Z,40.53
2022-12-11T04:25:06.295Z,43.53
2022-12-11T04:27:49.222Z,41.23
2022-12-11T04:30:18.449Z,47.00
2022-12-11T04:32:46.284Z,42.43
2022-12-11T04:35:14.160Z,42.70
2022-12-11T04:37:42.160Z,34.03
2022-12-11T04:40:11.968Z,43.63
2022-12-11T04:42:40.130Z,45.90
2022-12-11T04:45:08.855Z,132.60
2022-12-11T04:47:37.618Z,55.53
2022-12-11T04:50:06.229Z,50.67
2022-12-11T04:52:34.122Z,49.37
2022-12-11T04:55:01.645Z,43.40
2022-12-11T04:57:29.543Z,45.47
2022-12-11T04:59:57.252Z,39.97
2022-12-11T05:02:25.171Z,48.10
2022-12-11T05:04:53.133Z,45.10
2022-12-11T05:07:20.978Z,34.40
2022-12-11T05:09:48.435Z,47.73
2022-12-11T05:12:16.422Z,51.50
2022-12-11T05:14:44.585Z,39.97
2022-12-11T05:17:12.478Z,46.77
2022-12-11T05:19:39.947Z,45.73
2022-12-11T05:22:07.797Z,48.90
2022-12-11T05:24:35.326Z,55.63
2022-12-11T05:27:03.269Z,50.13
2022-12-11T05:29:30.855Z,56.27
2022-12-11T05:31:58.873Z,51.43
2022-12-11T05:34:26.630Z,61.80
2022-12-11T05:36:54.566Z,92.47
2022-12-11T05:39:22.031Z,50.43
2022-12-11T05:41:49.961Z,56.07
2022-12-11T05:44:17.515Z,55.77
2022-12-11T05:46:45.431Z,42.87
2022-12-11T05:49:13.133Z,48.57
2022-12-11T05:51:41.382Z,50.07
2022-12-11T05:54:09.596Z,47.70
2022-12-11T05:56:38.032Z,72.80
2022-12-11T05:59:06.401Z,46.57
2022-12-11T06:01:35.944Z,47.50
2022-12-11T06:04:03.729Z,52.53
2022-12-11T06:06:31.557Z,89.17
2022-12-11T06:08:59.600Z,136.10
2022-12-11T06:11:28.388Z,50.13
2022-12-11T06:13:56.265Z,50.80
2022-12-11T06:16:24.647Z,44.43
2022-12-11T06:18:55.714Z,78.43
2022-12-11T06:21:27.400Z,68.37
2022-12-11T06:23:56.350Z,84.83
2022-12-11T06:26:24.276Z,69.53
2022-12-11T06:28:51.800Z,70.20
2022-12-11T06:31:20.165Z,80.83
2022-12-11T06:33:47.934Z,72.23
2022-12-11T06:36:17.181Z,96.10
2022-12-11T06:38:45.111Z,62.97
2022-12-11T06:41:13.332Z,63.23
2022-12-11T06:43:41.259Z,48.33
2022-12-11T06:46:10.733Z,48.90
2022-12-11T06:48:38.454Z,59.57
2022-12-11T06:51:10.373Z,91.90
2022-12-11T06:53:37.954Z,66.35
2022-12-11T06:56:07.073Z,53.40
2022-12-11T06:58:35.797Z,53.37
2022-12-11T07:01:04.605Z,75.67
2022-12-11T07:03:32.271Z,65.33
2022-12-11T07:06:03.485Z,100.23
2022-12-11T07:08:32.048Z,61.40
2022-12-11T07:11:06.729Z,63.17
2022-12-11T07:13:34.478Z,72.03
2022-12-11T07:16:04.449Z,56.07
2022-12-11T07:18:32.805Z,48.90
2022-12-11T07:21:00.880Z,50.33
2022-12-11T07:23:28.902Z,80.13
2022-12-11T07:25:57.802Z,67.30
2022-12-11T07:28:26.229Z,50.27
2022-12-11T07:30:54.182Z,50.20
2022-12-11T07:33:21.832Z,58.47
2022-12-11T07:35:49.674Z,54.10
2022-12-11T07:38:17.313Z,46.83
2022-12-11T07:40:45.118Z,93.37
2022-12-11T07:43:12.686Z,163.47
2022-12-11T07:45:41.838Z,188.03
2022-12-11T07:48:09.535Z,50.67
2022-12-11T07:50:39.949Z,86.33
2022-12-11T07:53:09.216Z,259.65
2022-12-11T07:55:37.180Z,192.20
2022-12-11T07:58:04.832Z,152.13
2022-12-11T08:00:32.628Z,182.40
2022-12-11T08:03:00.168Z,219.80
2022-12-11T08:05:28.014Z,234.70
2022-12-11T08:07:55.884Z,53.70
2022-12-11T08:10:23.855Z,40.37
2022-12-11T08:12:51.449Z,63.27
2022-12-11T08:15:19.218Z,67.43
2022-12-11T08:17:46.975Z,63.40
2022-12-11T08:20:15.165Z,100.53
2022-12-11T08:22:42.820Z,70.27
2022-12-11T08:25:10.807Z,85.67
2022-12-11T08:27:38.675Z,121.63
2022-12-11T08:30:06.774Z,91.20
2022-12-11T08:32:35.238Z,69.30
2022-12-11T08:35:03.484Z,83.50
2022-12-11T08:37:31.489Z,67.73
2022-12-11T08:39:59.340Z,156.60
2022-12-11T08:42:27.223Z,105.93
2022-12-11T08:44:55.457Z,205.43
2022-12-11T08:47:23.209Z,110.17
2022-12-11T08:49:51.112Z,68.13
2022-12-11T08:52:18.785Z,130.00
2022-12-11T08:54:46.720Z,159.30
2022-12-11T08:57:14.492Z,189.87
2022-12-11T08:59:42.302Z,327.40
2022-12-11T09:02:13.624Z,199.53
2022-12-11T09:04:41.901Z,200.10
2022-12-11T09:07:09.569Z,206.33
2022-12-11T09:09:37.457Z,190.33
2022-12-11T09:12:05.443Z,107.70
2022-12-11T09:14:33.296Z,113.63
2022-12-11T09:17:00.900Z,35.50
2022-12-11T09:19:32.229Z,64.70
2022-12-11T09:22:00.522Z,103.05
2022-12-11T09:24:28.402Z,89.97
2022-12-11T09:26:56.075Z,63.77
2022-12-11T09:29:24.169Z,63.90
2022-12-11T09:31:52.044Z,34.57
2022-12-11T09:34:23.634Z,52.23
2022-12-11T09:36:55.152Z,58.73
2022-12-11T09:39:23.005Z,45.87
2022-12-11T09:42:03.330Z,48.27
2022-12-11T09:44:34.038Z,42.87
2022-12-11T09:47:01.989Z,50.20
2022-12-11T09:49:35.838Z,38.10
2022-12-11T09:52:21.865Z,46.37
2022-12-11T09:54:51.665Z,49.93
2022-12-11T09:57:25.790Z,49.23
2022-12-11T10:00:06.046Z,61.93
2022-12-11T10:02:50.342Z,105.50
2022-12-11T10:05:39.059Z,43.47
2022-12-11T10:08:18.590Z,34.30
2022-12-11T10:11:06.460Z,38.57
2022-12-11T10:13:36.758Z,67.97
2022-12-11T10:16:09.301Z,47.90
2022-12-11T10:18:37.362Z,44.23
2022-12-11T10:21:06.851Z,67.67
2022-12-11T10:23:42.201Z,32.73
2022-12-11T10:26:16.518Z,32.40
2022-12-11T10:28:44.115Z,38.87
2022-12-11T10:31:19.779Z,47.13
2022-12-11T10:33:53.634Z,57.70
2022-12-11T10:36:24.753Z,77.20
2022-12-11T10:38:52.473Z,74.93
2022-12-11T10:41:24.432Z,44.73
2022-12-11T10:43:53.283Z,35.78
2022-12-11T10:46:22.614Z,41.83
2022-12-11T10:48:53.539Z,51.83
2022-12-11T10:51:35.749Z,52.63
2022-12-11T10:54:18.578Z,40.92
2022-12-11T10:56:47.796Z,48.07
2022-12-11T10:59:24.214Z,41.93
2022-12-11T11:01:52.329Z,42.67
2022-12-11T11:04:21.640Z,48.33
2022-12-11T11:06:49.891Z,78.50
2022-12-11T11:09:31.903Z,59.20
2022-12-11T11:12:04.420Z,48.22
2022-12-11T11:14:35.138Z,46.67
2022-12-11T11:17:03.150Z,52.33
2022-12-11T11:19:32.615Z,56.53
2022-12-11T11:22:07.298Z,46.47
2022-12-11T11:24:35.066Z,43.23
2022-12-11T11:27:18.790Z,49.17
2022-12-11T11:29:51.565Z,52.53
2022-12-11T11:32:23.037Z,55.70
2022-12-11T11:34:51.096Z,44.43
2022-12-11T11:37:23.863Z,42.30
2022-12-11T11:39:53.658Z,50.37
2022-12-11T11:42:29.028Z,49.83
2022-12-11T11:45:07.900Z,58.27
2022-12-11T11:47:38.561Z,46.47
2022-12-11T11:50:15.697Z,48.13
2022-12-11T11:52:49.811Z,49.10
2022-12-11T11:55:22.476Z,50.13
2022-12-11T11:58:23.402Z,53.77
2022-12-11T12:00:53.830Z,61.47
2022-12-11T12:03:23.671Z,56.45
2022-12-11T12:06:14.941Z,43.97
2022-12-11T12:08:46.250Z,53.40
2022-12-11T12:11:13.815Z,38.87
2022-12-11T12:13:49.667Z,43.93
2022-12-11T12:16:51.617Z,51.93
2022-12-11T12:19:17.270Z,48.37
2022-12-11T12:21:48.112Z,51.50
2022-12-11T12:24:23.384Z,47.95
2022-12-11T12:26:54.819Z,94.03
2022-12-11T12:29:25.544Z,51.67
2022-12-11T12:32:01.913Z,46.13
2022-12-11T12:34:50.834Z,56.50
2022-12-11T12:37:30.787Z,57.37
2022-12-11T12:40:01.579Z,63.40
2022-12-11T12:43:01.458Z,71.60
2022-12-11T12:45:29.378Z,61.53
2022-12-11T12:47:57.013Z,230.10
2022-12-11T12:50:26.530Z,123.40
2022-12-11T12:52:54.783Z,87.00
2022-12-11T12:55:28.834Z,100.73
2022-12-11T12:58:06.856Z,85.90
2022-12-11T13:00:42.235Z,445.60
2022-12-11T13:03:18.443Z,184.37
2022-12-11T13:05:56.231Z,353.23
2022-12-11T13:08:32.267Z,199.03
2022-12-11T13:11:04.620Z,88.87
2022-12-11T13:13:34.277Z,51.50
2022-12-11T13:16:09.228Z,60.13
2022-12-11T13:18:40.630Z,55.30
2022-12-11T13:21:27.348Z,69.38
2022-12-11T13:23:55.238Z,70.37
2022-12-11T13:26:33.745Z,50.67
2022-12-11T13:29:01.329Z,66.70
2022-12-11T13:31:32.691Z,54.03
2022-12-11T13:34:07.730Z,51.38
2022-12-11T13:36:37.693Z,52.67
2022-12-11T13:39:24.031Z,59.47
2022-12-11T13:41:58.371Z,66.33
2022-12-11T13:44:30.908Z,55.57
2022-12-11T13:47:00.702Z,56.13
2022-12-11T13:49:40.109Z,65.20
2022-12-11T13:52:08.548Z,57.60
2022-12-11T13:54:36.530Z,39.87
2022-12-11T13:57:04.445Z,84.07
2022-12-11T13:59:36.550Z,76.07
2022-12-11T14:02:25.048Z,69.93
2022-12-11T14:04:54.883Z,46.50
2022-12-11T14:07:27.829Z,58.53
2022-12-11T14:10:00.280Z,70.00
2022-12-11T14:12:29.541Z,48.43
2022-12-11T14:14:58.615Z,80.17
2022-12-11T14:17:27.960Z,65.70
2022-12-11T14:19:56.862Z,72.27
2022-12-11T14:22:26.584Z,206.33
2022-12-11T14:24:58.746Z,1375.30
2022-12-11T14:27:27.395Z,749.63
2022-12-11T14:29:55.813Z,585.27
2022-12-11T14:32:35.211Z,1163.90
2022-12-11T14:35:04.843Z,1520.63
2022-12-11T14:37:33.473Z,640.37
2022-12-11T14:40:03.873Z,161.37
2022-12-11T14:42:33.699Z,461.40
2022-12-11T14:45:27.948Z,476.20
2022-12-11T14:47:57.681Z,286.30
2022-12-11T14:50:25.618Z,174.13
2022-12-11T14:53:02.930Z,78.73
2022-12-11T14:55:32.808Z,104.67
2022-12-11T14:58:03.216Z,79.60
2022-12-11T15:00:30.998Z,106.10
2022-12-11T15:03:00.498Z,154.57
2022-12-11T15:05:28.274Z,84.40
2022-12-11T15:07:59.548Z,95.50
2022-12-11T15:10:31.354Z,450.33
2022-12-11T15:12:59.970Z,157.77
2022-12-11T15:15:28.599Z,67.67
2022-12-11T15:17:56.759Z,85.50
2022-12-11T15:20:26.814Z,68.30
2022-12-11T15:22:55.275Z,104.27
2022-12-11T15:25:24.613Z,341.60
2022-12-11T15:27:56.636Z,530.57
2022-12-11T15:30:26.960Z,244.40
2022-12-11T15:33:10.474Z,117.67
2022-12-11T15:35:39.391Z,156.20
2022-12-11T15:38:07.638Z,126.00
2022-12-11T15:40:35.386Z,162.10
2022-12-11T15:43:03.563Z,99.93
2022-12-11T15:45:31.182Z,84.27
2022-12-11T15:47:59.620Z,83.33
2022-12-11T15:50:28.587Z,65.23
2022-12-11T15:52:57.278Z,71.40
2022-12-11T15:55:27.148Z,128.07
2022-12-11T15:57:56.598Z,60.37
2022-12-11T16:00:24.623Z,60.70
2022-12-11T16:02:52.692Z,77.73
2022-12-11T16:05:23.690Z,66.83
2022-12-11T16:07:53.337Z,61.07
2022-12-11T16:10:21.765Z,76.70
2022-12-11T16:12:49.517Z,64.07
2022-12-11T16:15:23.257Z,64.67
2022-12-11T16:18:00.402Z,57.03
2022-12-11T16:20:28.364Z,56.83
2022-12-11T16:22:56.009Z,64.90
2022-12-11T16:25:24.082Z,58.90
2022-12-11T16:27:55.489Z,63.80
2022-12-11T16:30:24.053Z,174.87
2022-12-11T16:32:51.922Z,61.30
2022-12-11T16:35:19.989Z,208.33
2022-12-11T16:37:51.061Z,58.53
2022-12-11T16:40:19.496Z,325.35
2022-12-11T16:42:47.197Z,83.63
2022-12-11T16:45:18.478Z,117.33
2022-12-11T16:47:46.191Z,151.82
2022-12-11T16:50:15.673Z,170.10
2022-12-11T16:52:43.905Z,352.97
2022-12-11T16:55:12.695Z,75.63
2022-12-11T16:57:40.695Z,290.70
2022-12-11T17:00:09.878Z,383.90
2022-12-11T17:02:37.594Z,1548.93
2022-12-11T17:05:05.735Z,246.93
2022-12-11T17:07:34.639Z,55.97
2022-12-11T17:10:03.229Z,174.37
2022-12-11T17:12:31.044Z,88.10
2022-12-11T17:14:58.949Z,366.10
2022-12-11T17:17:26.755Z,394.37
2022-12-11T17:19:54.712Z,69.70
2022-12-11T17:22:22.307Z,316.23
2022-12-11T17:24:50.278Z,143.97
2022-12-11T17:27:17.996Z,141.47
2022-12-11T17:29:47.364Z,113.50
2022-12-11T17:32:15.986Z,144.70
2022-12-11T17:34:43.960Z,111.43
2022-12-11T17:37:11.997Z,106.10
2022-12-11T17:39:39.825Z,67.90
2022-12-11T17:42:07.561Z,50.83
2022-12-11T17:44:35.696Z,69.40
2022-12-11T17:47:09.209Z,70.37
2022-12-11T17:49:39.651Z,67.87
2022-12-11T17:52:07.662Z,65.83
2022-12-11T17:54:35.590Z,69.67
2022-12-11T17:57:03.513Z,87.17
2022-12-11T17:59:31.462Z,84.17
2022-12-11T18:01:59.189Z,50.53
2022-12-11T18:04:27.171Z,80.20
2022-12-11T18:06:54.744Z,89.77
2022-12-11T18:09:22.566Z,81.67
2022-12-11T18:11:51.239Z,76.87
2022-12-11T18:14:19.082Z,75.37
2022-12-11T18:16:48.973Z,100.60
2022-12-11T18:19:16.955Z,73.03
2022-12-11T18:21:45.713Z,62.47
2022-12-11T18:24:14.135Z,70.03
2022-12-11T18:26:42.945Z,53.17
2022-12-11T18:29:11.000Z,62.47
2022-12-11T18:31:42.582Z,53.37
2022-12-11T18:34:11.863Z,97.63
2022-12-11T18:36:40.796Z,74.07
2022-12-11T18:39:08.687Z,132.97
2022-12-11T18:41:36.692Z,201.40
2022-12-11T18:44:09.492Z,79.87
2022-12-11T18:46:39.538Z,73.70
2022-12-11T18:49:08.267Z,101.63
2022-12-11T18:51:36.122Z,86.77
2022-12-11T18:54:04.033Z,71.17
2022-12-11T18:56:31.705Z,65.07
2022-12-11T18:58:59.745Z,77.47
2022-12-11T19:01:29.181Z,71.50
2022-12-11T19:04:02.727Z,65.23
2022-12-11T19:06:35.370Z,59.77
2022-12-11T19:09:04.840Z,68.90
2022-12-11T19:11:33.888Z,79.93
2022-12-11T19:14:01.817Z,75.73
2022-12-11T19:16:30.747Z,64.37
2022-12-11T19:18:59.386Z,69.13
2022-12-11T19:21:27.351Z,53.63
2022-12-11T19:23:55.286Z,82.23
2022-12-11T19:26:25.429Z,78.70
2022-12-11T19:28:53.806Z,64.77
2022-12-11T19:31:22.401Z,59.70
2022-12-11T19:33:52.108Z,58.20
2022-12-11T19:36:22.424Z,48.10
2022-12-11T19:38:50.731Z,56.23
2022-12-11T19:41:19.708Z,57.10
2022-12-11T19:43:47.854Z,60.13
2022-12-11T19:46:16.019Z,44.80
2022-12-11T19:48:44.572Z,55.47
2022-12-11T19:51:16.278Z,58.07
2022-12-11T19:53:45.552Z,65.40
2022-12-11T19:56:13.515Z,57.73
2022-12-11T19:58:42.334Z,72.97
2022-12-11T20:01:10.217Z,70.13
2022-12-11T20:03:39.371Z,72.23
2022-12-11T20:06:08.763Z,81.37
2022-12-11T20:08:45.679Z,74.13
2022-12-11T20:11:18.010Z,55.00
2022-12-11T20:13:47.553Z,57.83
2022-12-11T20:16:15.815Z,49.33
2022-12-11T20:18:44.006Z,48.57
2022-12-11T20:21:14.390Z,49.43
2022-12-11T20:23:42.936Z,56.20
2022-12-11T20:26:15.639Z,63.70
2022-12-11T20:28:44.953Z,52.13
2022-12-11T20:31:19.660Z,61.27
2022-12-11T20:33:49.407Z,58.40
2022-12-11T20:36:17.589Z,55.93
2022-12-11T20:38:45.600Z,52.57
2022-12-11T20:41:14.249Z,57.27
2022-12-11T20:43:42.422Z,61.23
2022-12-11T20:46:11.173Z,66.27
2022-12-11T20:48:39.419Z,70.23
2022-12-11T20:51:08.140Z,37.73
2022-12-11T20:53:37.039Z,64.80
2022-12-11T20:56:15.332Z,52.00
2022-12-11T20:58:43.825Z,48.87
2022-12-11T21:01:22.517Z,54.53
2022-12-11T21:03:52.233Z,47.40
2022-12-11T21:06:25.359Z,53.90
2022-12-11T21:08:55.346Z,43.17
2022-12-11T21:11:23.205Z,52.37
2022-12-11T21:13:51.894Z,45.53
2022-12-11T21:16:20.344Z,51.27
2022-12-11T21:18:48.777Z,49.57
2022-12-11T21:21:16.743Z,50.13
2022-12-11T21:23:44.779Z,44.90
2022-12-11T21:26:12.537Z,46.70
2022-12-11T21:28:40.678Z,46.13
2022-12-11T21:31:09.525Z,45.83
2022-12-11T21:33:37.428Z,48.67
2022-12-11T21:36:06.657Z,44.37
2022-12-11T21:38:34.642Z,45.90
2022-12-11T21:41:13.822Z,50.13
2022-12-11T21:44:06.838Z,44.27
2022-12-11T21:46:31.353Z,51.37
2022-12-11T21:49:00.816Z,53.80
2022-12-11T21:51:35.908Z,46.17
2022-12-11T21:54:06.407Z,46.47
2022-12-11T21:56:35.172Z,44.13
2022-12-11T21:59:03.199Z,44.03
2022-12-11T22:01:35.160Z,44.03
2022-12-11T22:04:03.721Z,51.60
2022-12-11T22:06:34.123Z,48.37
2022-12-11T22:09:02.032Z,48.53
2022-12-11T22:11:31.227Z,46.80
2022-12-11T22:13:59.088Z,43.03
2022-12-11T22:16:26.815Z,53.43
2022-12-11T22:18:54.857Z,54.07
2022-12-11T22:21:22.386Z,55.27
2022-12-11T22:23:50.306Z,41.43
2022-12-11T22:26:22.838Z,36.27
2022-12-11T22:28:51.172Z,53.73
2022-12-11T22:31:22.386Z,48.77
2022-12-11T22:33:51.379Z,53.60
2022-12-11T22:36:18.957Z,47.97
2022-12-11T22:38:47.184Z,55.57
2022-12-11T22:41:21.971Z,44.87
2022-12-11T22:43:50.553Z,48.93
2022-12-11T22:46:19.073Z,51.13
2022-12-11T22:48:47.010Z,55.50
2022-12-11T22:51:14.572Z,53.27
2022-12-11T22:53:42.356Z,61.97
2022-12-11T22:56:10.874Z,43.07
2022-12-11T22:58:38.944Z,42.50
2022-12-11T23:01:11.227Z,50.93
2022-12-11T23:03:39.478Z,45.83
2022-12-11T23:06:08.269Z,47.73
2022-12-11T23:08:36.311Z,48.27
2022-12-11T23:11:10.369Z,51.23
2022-12-11T23:13:38.262Z,56.23
2022-12-11T23:16:05.909Z,47.83
2022-12-11T23:18:33.779Z,44.13
2022-12-11T23:21:01.370Z,45.90
2022-12-11T23:23:29.394Z,47.03
2022-12-11T23:25:57.091Z,48.10
2022-12-11T23:28:25.056Z,47.67
2022-12-11T23:30:52.664Z,44.90
2022-12-11T23:33:20.697Z,48.23
2022-12-11T23:35:48.214Z,50.67
2022-12-11T23:38:17.163Z,51.03
2022-12-11T23:40:44.718Z,39.20
2022-12-11T23:43:12.654Z,50.70
2022-12-11T23:45:40.149Z,43.70
2022-12-11T23:48:08.459Z,51.70
2022-12-11T23:50:35.981Z,47.53
2022-12-11T23:53:03.888Z,42.77
2022-12-11T23:55:31.554Z,43.53
2022-12-11T23:57:59.560Z,41.97
